West Harpersfield, New York
Current Conditions -  °F | °C
As of 3:15 AM on Saturday 25 Oct 2014 (Local Time) from KNY0 Reporting Station
Broken Clouds Broken Clouds  
Wind Chill: 36°   Ceiling: 1400
Heat Index: 42°   Visibility: 10mi
Dew Point: 39°   Wind: 12mph
Humidity: 90%   Direction: 250°WSW
Pressure: 29.84"   Gusts: NA
Location:  42.455°N, 74.6929°W
Report Text: KNY0 250715Z AUTO 25010KT 10SM BKN014 06/04 A2984 RMK AO2 T00560040
Loading
Personal Weather Stations






























Interactive Weather Map
Tropical Storm Tracking
New forecast layout! Learn more

10-Day Weather Forecast

Advertisements
Track Severe Weather on mobile